sensor_id;sensor_type;location;lat;lon;timestamp;P1;durP1;ratioP1;P2;durP2;ratioP2
51836;SDS011;38941;53.254;6.600;2023-05-10T00:00:57;8.13;;;5.38;;
51836;SDS011;38941;53.254;6.600;2023-05-10T00:02:57;8.20;;;5.53;;
51836;SDS011;38941;53.254;6.600;2023-05-10T00:04:58;8.75;;;5.85;;
51836;SDS011;38941;53.254;6.600;2023-05-10T00:06:59;8.57;;;5.88;;
51836;SDS011;38941;53.254;6.600;2023-05-10T00:09:00;6.93;;;5.10;;
51836;SDS011;38941;53.254;6.600;2023-05-10T00:11:01;8.27;;;5.70;;
51836;SDS011;38941;53.254;6.600;2023-05-10T00:13:02;8.68;;;5.53;;
51836;SDS011;38941;53.254;6.600;2023-05-10T00:15:03;8.38;;;5.35;;
51836;SDS011;38941;53.254;6.600;2023-05-10T00:17:05;8.50;;;5.93;;
51836;SDS011;38941;53.254;6.600;2023-05-10T00:19:06;7.55;;;5.68;;
51836;SDS011;38941;53.254;6.600;2023-05-10T00:21:06;9.07;;;6.13;;
51836;SDS011;38941;53.254;6.600;2023-05-10T00:23:07;8.02;;;5.93;;
51836;SDS011;38941;53.254;6.600;2023-05-10T00:25:08;7.15;;;5.03;;
51836;SDS011;38941;53.254;6.600;2023-05-10T00:27:10;7.20;;;5.40;;
51836;SDS011;38941;53.254;6.600;2023-05-10T00:29:10;7.68;;;5.38;;
51836;SDS011;38941;53.254;6.600;2023-05-10T00:31:11;6.97;;;4.55;;
51836;SDS011;38941;53.254;6.600;2023-05-10T00:33:12;7.40;;;5.07;;
51836;SDS011;38941;53.254;6.600;2023-05-10T00:35:13;7.85;;;5.57;;
51836;SDS011;38941;53.254;6.600;2023-05-10T00:37:15;7.07;;;4.85;;
51836;SDS011;38941;53.254;6.600;2023-05-10T00:39:16;6.60;;;4.70;;
51836;SDS011;38941;53.254;6.600;2023-05-10T00:41:16;7.40;;;5.00;;
51836;SDS011;38941;53.254;6.600;2023-05-10T00:43:17;7.80;;;4.53;;
51836;SDS011;38941;53.254;6.600;2023-05-10T00:45:18;6.10;;;4.18;;
51836;SDS011;38941;53.254;6.600;2023-05-10T00:47:19;5.97;;;4.35;;
51836;SDS011;38941;53.254;6.600;2023-05-10T00:49:20;8.35;;;4.80;;
51836;SDS011;38941;53.254;6.600;2023-05-10T00:51:21;6.47;;;4.05;;
51836;SDS011;38941;53.254;6.600;2023-05-10T00:53:23;6.75;;;4.63;;
51836;SDS011;38941;53.254;6.600;2023-05-10T00:55:25;6.63;;;4.72;;
51836;SDS011;38941;53.254;6.600;2023-05-10T00:57:26;6.75;;;4.30;;
51836;SDS011;38941;53.254;6.600;2023-05-10T00:59:27;8.95;;;4.68;;
51836;SDS011;38941;53.254;6.600;2023-05-10T01:01:29;6.63;;;4.40;;
51836;SDS011;38941;53.254;6.600;2023-05-10T01:03:30;6.40;;;4.30;;
51836;SDS011;38941;53.254;6.600;2023-05-10T01:05:32;5.75;;;4.05;;
51836;SDS011;38941;53.254;6.600;2023-05-10T01:07:33;6.57;;;4.35;;
51836;SDS011;38941;53.254;6.600;2023-05-10T01:09:33;5.68;;;3.60;;
51836;SDS011;38941;53.254;6.600;2023-05-10T01:11:35;5.43;;;4.00;;
51836;SDS011;38941;53.254;6.600;2023-05-10T01:13:38;4.82;;;3.35;;
51836;SDS011;38941;53.254;6.600;2023-05-10T01:15:41;4.93;;;3.28;;
51836;SDS011;38941;53.254;6.600;2023-05-10T01:17:42;5.13;;;3.53;;
51836;SDS011;38941;53.254;6.600;2023-05-10T01:19:44;5.18;;;3.65;;
51836;SDS011;38941;53.254;6.600;2023-05-10T01:24:26;5.68;;;3.55;;
51836;SDS011;38941;53.254;6.600;2023-05-10T01:26:40;5.80;;;3.78;;
51836;SDS011;38941;53.254;6.600;2023-05-10T01:34:06;5.78;;;4.10;;
51836;SDS011;38941;53.254;6.600;2023-05-10T01:38:38;6.55;;;4.18;;
51836;SDS011;38941;53.254;6.600;2023-05-10T01:43:28;5.13;;;3.50;;
51836;SDS011;38941;53.254;6.600;2023-05-10T01:45:39;5.25;;;3.67;;
51836;SDS011;38941;53.254;6.600;2023-05-10T01:47:50;5.95;;;3.97;;
51836;SDS011;38941;53.254;6.600;2023-05-10T01:49:59;7.05;;;4.30;;
51836;SDS011;38941;53.254;6.600;2023-05-10T01:52:07;8.05;;;4.10;;
51836;SDS011;38941;53.254;6.600;2023-05-10T01:54:10;7.47;;;4.65;;
51836;SDS011;38941;53.254;6.600;2023-05-10T01:56:13;7.32;;;4.75;;
51836;SDS011;38941;53.254;6.600;2023-05-10T01:58:17;10.32;;;5.53;;
51836;SDS011;38941;53.254;6.600;2023-05-10T02:00:28;7.82;;;5.10;;
51836;SDS011;38941;53.254;6.600;2023-05-10T02:02:31;6.63;;;4.15;;
51836;SDS011;38941;53.254;6.600;2023-05-10T02:04:37;8.18;;;5.13;;
51836;SDS011;38941;53.254;6.600;2023-05-10T02:06:39;6.15;;;4.20;;
51836;SDS011;38941;53.254;6.600;2023-05-10T02:08:42;6.40;;;4.45;;
51836;SDS011;38941;53.254;6.600;2023-05-10T02:10:46;6.22;;;4.38;;
51836;SDS011;38941;53.254;6.600;2023-05-10T02:12:49;7.90;;;5.10;;
51836;SDS011;38941;53.254;6.600;2023-05-10T02:14:52;9.23;;;4.65;;
51836;SDS011;38941;53.254;6.600;2023-05-10T02:16:53;6.45;;;4.65;;
51836;SDS011;38941;53.254;6.600;2023-05-10T02:18:57;12.07;;;5.75;;
51836;SDS011;38941;53.254;6.600;2023-05-10T02:21:02;6.80;;;4.55;;
51836;SDS011;38941;53.254;6.600;2023-05-10T02:23:03;7.95;;;5.18;;
51836;SDS011;38941;53.254;6.600;2023-05-10T02:25:05;5.35;;;3.80;;
51836;SDS011;38941;53.254;6.600;2023-05-10T02:27:09;6.13;;;4.47;;
51836;SDS011;38941;53.254;6.600;2023-05-10T02:29:12;6.07;;;4.38;;
51836;SDS011;38941;53.254;6.600;2023-05-10T02:31:14;6.35;;;4.15;;
51836;SDS011;38941;53.254;6.600;2023-05-10T02:33:17;8.13;;;4.40;;
51836;SDS011;38941;53.254;6.600;2023-05-10T02:35:19;6.57;;;4.38;;
51836;SDS011;38941;53.254;6.600;2023-05-10T02:37:22;7.50;;;4.72;;
51836;SDS011;38941;53.254;6.600;2023-05-10T02:39:25;6.32;;;4.13;;
51836;SDS011;38941;53.254;6.600;2023-05-10T02:41:28;6.25;;;4.30;;
51836;SDS011;38941;53.254;6.600;2023-05-10T02:43:32;6.43;;;3.97;;
51836;SDS011;38941;53.254;6.600;2023-05-10T02:45:33;6.40;;;4.35;;
51836;SDS011;38941;53.254;6.600;2023-05-10T02:47:36;6.90;;;4.18;;
51836;SDS011;38941;53.254;6.600;2023-05-10T02:49:37;6.53;;;4.35;;
51836;SDS011;38941;53.254;6.600;2023-05-10T02:51:40;7.55;;;4.25;;
51836;SDS011;38941;53.254;6.600;2023-05-10T02:53:46;9.50;;;4.80;;
51836;SDS011;38941;53.254;6.600;2023-05-10T02:55:50;8.32;;;5.20;;
51836;SDS011;38941;53.254;6.600;2023-05-10T02:57:56;9.20;;;5.35;;
51836;SDS011;38941;53.254;6.600;2023-05-10T02:59:59;7.93;;;5.10;;
51836;SDS011;38941;53.254;6.600;2023-05-10T03:02:01;10.85;;;5.90;;
51836;SDS011;38941;53.254;6.600;2023-05-10T03:04:04;10.85;;;5.93;;
51836;SDS011;38941;53.254;6.600;2023-05-10T03:06:05;13.52;;;6.35;;
51836;SDS011;38941;53.254;6.600;2023-05-10T03:08:05;11.88;;;5.95;;
51836;SDS011;38941;53.254;6.600;2023-05-10T03:10:07;9.68;;;6.22;;
51836;SDS011;38941;53.254;6.600;2023-05-10T03:12:27;10.52;;;6.22;;
51836;SDS011;38941;53.254;6.600;2023-05-10T03:14:42;11.40;;;6.15;;
51836;SDS011;38941;53.254;6.600;2023-05-10T03:17:42;12.10;;;6.03;;
51836;SDS011;38941;53.254;6.600;2023-05-10T03:19:39;12.77;;;6.60;;
51836;SDS011;38941;53.254;6.600;2023-05-10T03:21:54;13.10;;;7.07;;
51836;SDS011;38941;53.254;6.600;2023-05-10T03:24:03;10.10;;;6.32;;
51836;SDS011;38941;53.254;6.600;2023-05-10T03:26:07;10.93;;;6.53;;
51836;SDS011;38941;53.254;6.600;2023-05-10T03:28:08;12.30;;;6.40;;
51836;SDS011;38941;53.254;6.600;2023-05-10T03:30:10;12.60;;;7.00;;
51836;SDS011;38941;53.254;6.600;2023-05-10T03:32:12;11.30;;;6.75;;
51836;SDS011;38941;53.254;6.600;2023-05-10T03:34:13;14.30;;;6.78;;
51836;SDS011;38941;53.254;6.600;2023-05-10T03:36:15;12.95;;;7.03;;
51836;SDS011;38941;53.254;6.600;2023-05-10T03:38:16;12.25;;;7.30;;
51836;SDS011;38941;53.254;6.600;2023-05-10T03:40:16;11.88;;;6.65;;
51836;SDS011;38941;53.254;6.600;2023-05-10T03:42:17;14.10;;;7.43;;
51836;SDS011;38941;53.254;6.600;2023-05-10T03:44:18;15.75;;;7.28;;
51836;SDS011;38941;53.254;6.600;2023-05-10T03:46:19;13.10;;;7.57;;
51836;SDS011;38941;53.254;6.600;2023-05-10T03:48:19;13.55;;;7.43;;
51836;SDS011;38941;53.254;6.600;2023-05-10T03:50:20;13.98;;;8.20;;
51836;SDS011;38941;53.254;6.600;2023-05-10T03:52:21;14.82;;;7.80;;
51836;SDS011;38941;53.254;6.600;2023-05-10T03:54:22;13.07;;;7.72;;
51836;SDS011;38941;53.254;6.600;2023-05-10T03:56:23;10.75;;;6.20;;
51836;SDS011;38941;53.254;6.600;2023-05-10T03:58:24;11.57;;;6.93;;
51836;SDS011;38941;53.254;6.600;2023-05-10T04:00:24;12.00;;;6.28;;
51836;SDS011;38941;53.254;6.600;2023-05-10T04:02:25;11.15;;;6.35;;
51836;SDS011;38941;53.254;6.600;2023-05-10T04:04:26;9.57;;;5.32;;
51836;SDS011;38941;53.254;6.600;2023-05-10T04:06:28;12.88;;;5.45;;
51836;SDS011;38941;53.254;6.600;2023-05-10T04:08:28;11.95;;;5.30;;
51836;SDS011;38941;53.254;6.600;2023-05-10T04:10:29;8.70;;;5.80;;
51836;SDS011;38941;53.254;6.600;2023-05-10T04:12:30;12.68;;;4.97;;
51836;SDS011;38941;53.254;6.600;2023-05-10T04:14:31;7.55;;;4.43;;
51836;SDS011;38941;53.254;6.600;2023-05-10T04:16:42;7.43;;;4.63;;
51836;SDS011;38941;53.254;6.600;2023-05-10T04:18:42;10.73;;;4.72;;
51836;SDS011;38941;53.254;6.600;2023-05-10T04:20:44;7.88;;;5.00;;
51836;SDS011;38941;53.254;6.600;2023-05-10T04:22:45;7.97;;;4.53;;
51836;SDS011;38941;53.254;6.600;2023-05-10T04:24:45;6.97;;;4.53;;
51836;SDS011;38941;53.254;6.600;2023-05-10T04:26:46;7.20;;;4.30;;
51836;SDS011;38941;53.254;6.600;2023-05-10T04:28:47;7.00;;;4.35;;
51836;SDS011;38941;53.254;6.600;2023-05-10T04:30:48;6.03;;;4.10;;
51836;SDS011;38941;53.254;6.600;2023-05-10T04:32:48;6.65;;;3.97;;
51836;SDS011;38941;53.254;6.600;2023-05-10T04:34:49;8.07;;;4.68;;
51836;SDS011;38941;53.254;6.600;2023-05-10T04:36:51;8.85;;;4.50;;
51836;SDS011;38941;53.254;6.600;2023-05-10T04:38:53;7.95;;;4.18;;
51836;SDS011;38941;53.254;6.600;2023-05-10T04:40:53;7.85;;;4.82;;
51836;SDS011;38941;53.254;6.600;2023-05-10T04:42:54;7.35;;;3.90;;
51836;SDS011;38941;53.254;6.600;2023-05-10T04:44:55;6.80;;;4.07;;
51836;SDS011;38941;53.254;6.600;2023-05-10T04:46:56;5.97;;;4.10;;
51836;SDS011;38941;53.254;6.600;2023-05-10T04:48:56;6.38;;;3.65;;
51836;SDS011;38941;53.254;6.600;2023-05-10T04:50:57;7.15;;;3.63;;
51836;SDS011;38941;53.254;6.600;2023-05-10T04:52:58;5.32;;;3.78;;
51836;SDS011;38941;53.254;6.600;2023-05-10T04:54:59;5.60;;;3.72;;
51836;SDS011;38941;53.254;6.600;2023-05-10T04:56:59;7.43;;;4.05;;
51836;SDS011;38941;53.254;6.600;2023-05-10T04:59:00;6.95;;;3.90;;
51836;SDS011;38941;53.254;6.600;2023-05-10T05:01:04;5.30;;;3.78;;
51836;SDS011;38941;53.254;6.600;2023-05-10T05:03:07;5.45;;;3.47;;
51836;SDS011;38941;53.254;6.600;2023-05-10T05:05:08;5.28;;;3.50;;
51836;SDS011;38941;53.254;6.600;2023-05-10T05:07:09;5.03;;;3.53;;
51836;SDS011;38941;53.254;6.600;2023-05-10T05:09:10;4.68;;;4.10;;
51836;SDS011;38941;53.254;6.600;2023-05-10T05:11:11;6.35;;;3.97;;
51836;SDS011;38941;53.254;6.600;2023-05-10T05:13:12;4.78;;;3.70;;
51836;SDS011;38941;53.254;6.600;2023-05-10T05:15:13;5.75;;;3.92;;
51836;SDS011;38941;53.254;6.600;2023-05-10T05:17:15;6.25;;;4.00;;
51836;SDS011;38941;53.254;6.600;2023-05-10T05:19:16;5.05;;;3.45;;
51836;SDS011;38941;53.254;6.600;2023-05-10T05:21:17;4.95;;;3.80;;
51836;SDS011;38941;53.254;6.600;2023-05-10T05:23:18;5.47;;;3.72;;
51836;SDS011;38941;53.254;6.600;2023-05-10T05:25:20;3.92;;;3.08;;
51836;SDS011;38941;53.254;6.600;2023-05-10T05:27:22;3.83;;;2.92;;
51836;SDS011;38941;53.254;6.600;2023-05-10T05:29:24;6.03;;;3.50;;
51836;SDS011;38941;53.254;6.600;2023-05-10T05:31:24;3.97;;;2.63;;
51836;SDS011;38941;53.254;6.600;2023-05-10T05:33:26;4.90;;;2.60;;
51836;SDS011;38941;53.254;6.600;2023-05-10T05:35:27;3.97;;;3.17;;
51836;SDS011;38941;53.254;6.600;2023-05-10T05:37:27;4.40;;;2.92;;
51836;SDS011;38941;53.254;6.600;2023-05-10T05:39:29;4.40;;;3.10;;
51836;SDS011;38941;53.254;6.600;2023-05-10T05:41:30;4.63;;;2.95;;
51836;SDS011;38941;53.254;6.600;2023-05-10T05:43:30;3.85;;;2.60;;
51836;SDS011;38941;53.254;6.600;2023-05-10T05:45:31;3.95;;;2.67;;
51836;SDS011;38941;53.254;6.600;2023-05-10T05:47:33;4.35;;;3.15;;
51836;SDS011;38941;53.254;6.600;2023-05-10T05:49:33;4.43;;;3.03;;
51836;SDS011;38941;53.254;6.600;2023-05-10T05:51:34;3.88;;;2.72;;
51836;SDS011;38941;53.254;6.600;2023-05-10T05:53:35;4.68;;;2.78;;
51836;SDS011;38941;53.254;6.600;2023-05-10T05:55:36;3.90;;;2.92;;
51836;SDS011;38941;53.254;6.600;2023-05-10T05:57:36;4.20;;;2.70;;
51836;SDS011;38941;53.254;6.600;2023-05-10T05:59:37;5.35;;;2.60;;
51836;SDS011;38941;53.254;6.600;2023-05-10T06:01:41;3.47;;;2.53;;
51836;SDS011;38941;53.254;6.600;2023-05-10T06:03:44;3.25;;;2.30;;
51836;SDS011;38941;53.254;6.600;2023-05-10T06:05:46;2.28;;;1.70;;
51836;SDS011;38941;53.254;6.600;2023-05-10T06:07:47;2.88;;;1.50;;
51836;SDS011;38941;53.254;6.600;2023-05-10T06:09:47;1.92;;;1.30;;
51836;SDS011;38941;53.254;6.600;2023-05-10T06:11:48;2.13;;;0.77;;
51836;SDS011;38941;53.254;6.600;2023-05-10T06:13:50;0.82;;;0.52;;
51836;SDS011;38941;53.254;6.600;2023-05-10T06:15:51;0.63;;;0.47;;
51836;SDS011;38941;53.254;6.600;2023-05-10T06:17:52;0.50;;;0.43;;
51836;SDS011;38941;53.254;6.600;2023-05-10T06:19:53;0.77;;;0.60;;
51836;SDS011;38941;53.254;6.600;2023-05-10T06:21:53;0.60;;;0.60;;
51836;SDS011;38941;53.254;6.600;2023-05-10T06:23:54;1.13;;;0.85;;
51836;SDS011;38941;53.254;6.600;2023-05-10T06:25:55;1.30;;;0.90;;
51836;SDS011;38941;53.254;6.600;2023-05-10T06:27:56;3.60;;;1.67;;
51836;SDS011;38941;53.254;6.600;2023-05-10T06:29:58;1.75;;;1.38;;
51836;SDS011;38941;53.254;6.600;2023-05-10T06:31:59;2.13;;;1.50;;
51836;SDS011;38941;53.254;6.600;2023-05-10T06:34:00;2.10;;;1.52;;
51836;SDS011;38941;53.254;6.600;2023-05-10T06:36:02;3.50;;;1.38;;
51836;SDS011;38941;53.254;6.600;2023-05-10T06:38:02;1.95;;;1.35;;
51836;SDS011;38941;53.254;6.600;2023-05-10T06:40:03;2.45;;;1.80;;
51836;SDS011;38941;53.254;6.600;2023-05-10T06:42:05;3.65;;;2.33;;
51836;SDS011;38941;53.254;6.600;2023-05-10T06:44:05;3.22;;;2.63;;
51836;SDS011;38941;53.254;6.600;2023-05-10T06:46:06;4.13;;;3.00;;
51836;SDS011;38941;53.254;6.600;2023-05-10T06:48:07;5.10;;;3.25;;
51836;SDS011;38941;53.254;6.600;2023-05-10T06:50:08;4.47;;;3.42;;
51836;SDS011;38941;53.254;6.600;2023-05-10T06:52:09;6.18;;;4.38;;
51836;SDS011;38941;53.254;6.600;2023-05-10T06:54:10;7.15;;;4.55;;
51836;SDS011;38941;53.254;6.600;2023-05-10T06:56:11;8.65;;;4.82;;
51836;SDS011;38941;53.254;6.600;2023-05-10T06:58:12;6.85;;;5.25;;
51836;SDS011;38941;53.254;6.600;2023-05-10T07:00:14;9.57;;;5.55;;
51836;SDS011;38941;53.254;6.600;2023-05-10T07:02:15;11.40;;;6.30;;
51836;SDS011;38941;53.254;6.600;2023-05-10T07:04:17;10.13;;;6.40;;
51836;SDS011;38941;53.254;6.600;2023-05-10T07:06:18;9.98;;;6.53;;
51836;SDS011;38941;53.254;6.600;2023-05-10T07:08:18;10.52;;;6.20;;
51836;SDS011;38941;53.254;6.600;2023-05-10T07:10:19;11.57;;;7.35;;
51836;SDS011;38941;53.254;6.600;2023-05-10T07:12:22;11.00;;;6.22;;
51836;SDS011;38941;53.254;6.600;2023-05-10T07:14:24;10.85;;;5.60;;
51836;SDS011;38941;53.254;6.600;2023-05-10T07:16:24;8.18;;;5.47;;
51836;SDS011;38941;53.254;6.600;2023-05-10T07:18:25;10.48;;;6.57;;
51836;SDS011;38941;53.254;6.600;2023-05-10T07:20:26;8.93;;;5.25;;
51836;SDS011;38941;53.254;6.600;2023-05-10T07:22:27;9.25;;;5.78;;
51836;SDS011;38941;53.254;6.600;2023-05-10T07:24:27;8.90;;;4.88;;
51836;SDS011;38941;53.254;6.600;2023-05-10T07:26:28;6.88;;;4.60;;
51836;SDS011;38941;53.254;6.600;2023-05-10T07:28:29;7.15;;;4.07;;
51836;SDS011;38941;53.254;6.600;2023-05-10T07:30:30;6.32;;;4.03;;
51836;SDS011;38941;53.254;6.600;2023-05-10T07:32:31;6.45;;;4.13;;
51836;SDS011;38941;53.254;6.600;2023-05-10T07:34:32;5.55;;;3.90;;
51836;SDS011;38941;53.254;6.600;2023-05-10T07:36:34;4.90;;;2.90;;
51836;SDS011;38941;53.254;6.600;2023-05-10T07:38:36;3.72;;;2.70;;
51836;SDS011;38941;53.254;6.600;2023-05-10T07:40:38;3.38;;;2.38;;
51836;SDS011;38941;53.254;6.600;2023-05-10T07:42:39;2.88;;;2.17;;
51836;SDS011;38941;53.254;6.600;2023-05-10T07:44:40;5.63;;;2.72;;
51836;SDS011;38941;53.254;6.600;2023-05-10T07:46:40;3.15;;;2.00;;
51836;SDS011;38941;53.254;6.600;2023-05-10T07:50:45;3.22;;;1.88;;
51836;SDS011;38941;53.254;6.600;2023-05-10T07:52:48;2.75;;;2.00;;
51836;SDS011;38941;53.254;6.600;2023-05-10T07:54:49;2.65;;;2.00;;
51836;SDS011;38941;53.254;6.600;2023-05-10T07:56:51;2.40;;;2.00;;
51836;SDS011;38941;53.254;6.600;2023-05-10T07:58:54;2.35;;;1.80;;
51836;SDS011;38941;53.254;6.600;2023-05-10T08:01:01;2.50;;;1.85;;
51836;SDS011;38941;53.254;6.600;2023-05-10T08:03:15;3.05;;;1.90;;
51836;SDS011;38941;53.254;6.600;2023-05-10T08:05:15;2.20;;;1.80;;
51836;SDS011;38941;53.254;6.600;2023-05-10T08:07:16;3.45;;;2.13;;
51836;SDS011;38941;53.254;6.600;2023-05-10T08:09:20;2.83;;;2.00;;
51836;SDS011;38941;53.254;6.600;2023-05-10T08:13:27;3.20;;;2.35;;
51836;SDS011;38941;53.254;6.600;2023-05-10T08:15:29;3.83;;;2.00;;
51836;SDS011;38941;53.254;6.600;2023-05-10T08:17:30;4.05;;;2.78;;
51836;SDS011;38941;53.254;6.600;2023-05-10T08:19:31;2.58;;;2.20;;
51836;SDS011;38941;53.254;6.600;2023-05-10T08:21:32;3.50;;;2.40;;
51836;SDS011;38941;53.254;6.600;2023-05-10T08:23:33;2.25;;;1.80;;
51836;SDS011;38941;53.254;6.600;2023-05-10T08:25:33;2.80;;;2.00;;
51836;SDS011;38941;53.254;6.600;2023-05-10T08:27:34;3.95;;;2.20;;
51836;SDS011;38941;53.254;6.600;2023-05-10T08:29:35;3.10;;;2.67;;
51836;SDS011;38941;53.254;6.600;2023-05-10T08:31:36;3.13;;;2.60;;
51836;SDS011;38941;53.254;6.600;2023-05-10T08:33:37;2.33;;;2.05;;
51836;SDS011;38941;53.254;6.600;2023-05-10T08:35:38;7.35;;;2.38;;
51836;SDS011;38941;53.254;6.600;2023-05-10T08:37:38;2.85;;;2.13;;
51836;SDS011;38941;53.254;6.600;2023-05-10T08:39:40;2.65;;;2.28;;
51836;SDS011;38941;53.254;6.600;2023-05-10T08:41:41;3.90;;;2.20;;
51836;SDS011;38941;53.254;6.600;2023-05-10T08:43:46;3.70;;;2.00;;
51836;SDS011;38941;53.254;6.600;2023-05-10T08:45:48;4.38;;;2.13;;
51836;SDS011;38941;53.254;6.600;2023-05-10T08:47:50;2.72;;;1.90;;
51836;SDS011;38941;53.254;6.600;2023-05-10T08:49:52;3.85;;;2.22;;
51836;SDS011;38941;53.254;6.600;2023-05-10T08:51:55;2.47;;;1.70;;
51836;SDS011;38941;53.254;6.600;2023-05-10T08:54:01;2.10;;;1.55;;
51836;SDS011;38941;53.254;6.600;2023-05-10T08:56:03;2.10;;;1.30;;
51836;SDS011;38941;53.254;6.600;2023-05-10T08:58:06;2.28;;;1.33;;
51836;SDS011;38941;53.254;6.600;2023-05-10T09:00:08;4.50;;;1.00;;
51836;SDS011;38941;53.254;6.600;2023-05-10T09:02:09;3.53;;;1.20;;
51836;SDS011;38941;53.254;6.600;2023-05-10T09:04:13;3.20;;;0.95;;
51836;SDS011;38941;53.254;6.600;2023-05-10T09:06:14;1.80;;;1.27;;
51836;SDS011;38941;53.254;6.600;2023-05-10T09:08:15;1.73;;;1.45;;
51836;SDS011;38941;53.254;6.600;2023-05-10T09:10:18;2.53;;;1.60;;
51836;SDS011;38941;53.254;6.600;2023-05-10T09:12:20;3.85;;;1.88;;
51836;SDS011;38941;53.254;6.600;2023-05-10T09:14:21;4.72;;;2.22;;
51836;SDS011;38941;53.254;6.600;2023-05-10T09:16:23;4.15;;;2.15;;
51836;SDS011;38941;53.254;6.600;2023-05-10T09:18:25;5.00;;;2.33;;
51836;SDS011;38941;53.254;6.600;2023-05-10T09:20:26;4.00;;;2.22;;
51836;SDS011;38941;53.254;6.600;2023-05-10T09:22:26;6.07;;;2.38;;
51836;SDS011;38941;53.254;6.600;2023-05-10T09:24:29;4.13;;;2.33;;
51836;SDS011;38941;53.254;6.600;2023-05-10T09:26:30;3.92;;;2.55;;
51836;SDS011;38941;53.254;6.600;2023-05-10T09:28:50;5.68;;;2.28;;
51836;SDS011;38941;53.254;6.600;2023-05-10T09:30:52;6.28;;;2.70;;
51836;SDS011;38941;53.254;6.600;2023-05-10T09:32:55;5.65;;;2.95;;
51836;SDS011;38941;53.254;6.600;2023-05-10T09:34:57;6.82;;;3.30;;
51836;SDS011;38941;53.254;6.600;2023-05-10T09:37:09;4.70;;;2.83;;
51836;SDS011;38941;53.254;6.600;2023-05-10T09:39:10;4.47;;;3.10;;
51836;SDS011;38941;53.254;6.600;2023-05-10T09:43:18;4.20;;;2.90;;
51836;SDS011;38941;53.254;6.600;2023-05-10T09:45:22;3.63;;;2.50;;
51836;SDS011;38941;53.254;6.600;2023-05-10T09:47:24;3.47;;;2.83;;
51836;SDS011;38941;53.254;6.600;2023-05-10T09:49:26;4.68;;;2.50;;
51836;SDS011;38941;53.254;6.600;2023-05-10T09:51:27;3.60;;;2.30;;
51836;SDS011;38941;53.254;6.600;2023-05-10T09:53:30;4.15;;;3.15;;
51836;SDS011;38941;53.254;6.600;2023-05-10T09:57:41;5.32;;;2.58;;
51836;SDS011;38941;53.254;6.600;2023-05-10T09:59:43;2.58;;;1.85;;
51836;SDS011;38941;53.254;6.600;2023-05-10T10:01:49;2.17;;;1.20;;
51836;SDS011;38941;53.254;6.600;2023-05-10T10:03:51;2.22;;;1.30;;
51836;SDS011;38941;53.254;6.600;2023-05-10T10:05:53;1.90;;;1.48;;
51836;SDS011;38941;53.254;6.600;2023-05-10T10:07:57;1.95;;;1.55;;
51836;SDS011;38941;53.254;6.600;2023-05-10T10:09:59;2.30;;;1.45;;
51836;SDS011;38941;53.254;6.600;2023-05-10T10:12:01;1.75;;;1.38;;
51836;SDS011;38941;53.254;6.600;2023-05-10T10:14:03;2.65;;;1.20;;
51836;SDS011;38941;53.254;6.600;2023-05-10T10:16:05;1.60;;;1.15;;
51836;SDS011;38941;53.254;6.600;2023-05-10T10:18:06;1.65;;;1.13;;
51836;SDS011;38941;53.254;6.600;2023-05-10T10:20:07;2.90;;;1.30;;
51836;SDS011;38941;53.254;6.600;2023-05-10T10:22:08;1.50;;;1.20;;
51836;SDS011;38941;53.254;6.600;2023-05-10T10:24:12;2.45;;;1.10;;
51836;SDS011;38941;53.254;6.600;2023-05-10T10:26:15;2.25;;;1.00;;
51836;SDS011;38941;53.254;6.600;2023-05-10T10:34:31;1.70;;;1.20;;
51836;SDS011;38941;53.254;6.600;2023-05-10T10:36:54;3.28;;;1.27;;
51836;SDS011;38941;53.254;6.600;2023-05-10T10:41:02;2.58;;;1.33;;
51836;SDS011;38941;53.254;6.600;2023-05-10T10:43:23;2.05;;;1.45;;
51836;SDS011;38941;53.254;6.600;2023-05-10T10:45:25;1.80;;;1.40;;
51836;SDS011;38941;53.254;6.600;2023-05-10T10:47:28;3.70;;;1.67;;
51836;SDS011;38941;53.254;6.600;2023-05-10T10:49:33;1.77;;;1.30;;
51836;SDS011;38941;53.254;6.600;2023-05-10T10:51:38;1.95;;;1.52;;
51836;SDS011;38941;53.254;6.600;2023-05-10T10:53:40;3.13;;;1.95;;
51836;SDS011;38941;53.254;6.600;2023-05-10T10:55:51;4.22;;;1.85;;
51836;SDS011;38941;53.254;6.600;2023-05-10T10:58:02;3.72;;;1.88;;
51836;SDS011;38941;53.254;6.600;2023-05-10T11:04:58;3.55;;;2.15;;
51836;SDS011;38941;53.254;6.600;2023-05-10T11:07:15;3.63;;;2.38;;
51836;SDS011;38941;53.254;6.600;2023-05-10T11:09:17;3.30;;;2.33;;
51836;SDS011;38941;53.254;6.600;2023-05-10T11:11:18;4.13;;;2.72;;
51836;SDS011;38941;53.254;6.600;2023-05-10T11:15:39;4.78;;;2.80;;
51836;SDS011;38941;53.254;6.600;2023-05-10T11:17:47;5.97;;;3.60;;
51836;SDS011;38941;53.254;6.600;2023-05-10T11:20:07;9.88;;;4.22;;
51836;SDS011;38941;53.254;6.600;2023-05-10T11:22:13;6.47;;;3.83;;
51836;SDS011;38941;53.254;6.600;2023-05-10T11:24:21;6.97;;;4.13;;
51836;SDS011;38941;53.254;6.600;2023-05-10T11:26:24;7.80;;;4.30;;
51836;SDS011;38941;53.254;6.600;2023-05-10T11:28:26;8.50;;;4.00;;
51836;SDS011;38941;53.254;6.600;2023-05-10T11:30:28;6.68;;;4.13;;
51836;SDS011;38941;53.254;6.600;2023-05-10T11:32:29;11.18;;;5.90;;
51836;SDS011;38941;53.254;6.600;2023-05-10T11:34:31;7.20;;;4.13;;
51836;SDS011;38941;53.254;6.600;2023-05-10T11:36:35;8.57;;;3.90;;
51836;SDS011;38941;53.254;6.600;2023-05-10T11:38:36;7.88;;;4.80;;
51836;SDS011;38941;53.254;6.600;2023-05-10T11:40:38;10.15;;;4.95;;
51836;SDS011;38941;53.254;6.600;2023-05-10T11:42:40;8.07;;;4.65;;
51836;SDS011;38941;53.254;6.600;2023-05-10T11:44:41;7.28;;;4.50;;
51836;SDS011;38941;53.254;6.600;2023-05-10T11:46:44;8.30;;;4.25;;
51836;SDS011;38941;53.254;6.600;2023-05-10T11:48:48;8.38;;;5.47;;
51836;SDS011;38941;53.254;6.600;2023-05-10T11:50:50;11.85;;;4.70;;
51836;SDS011;38941;53.254;6.600;2023-05-10T11:52:52;7.93;;;4.70;;
51836;SDS011;38941;53.254;6.600;2023-05-10T11:54:55;8.38;;;4.50;;
51836;SDS011;38941;53.254;6.600;2023-05-10T11:56:56;7.82;;;3.78;;
51836;SDS011;38941;53.254;6.600;2023-05-10T11:58:57;7.57;;;3.85;;
51836;SDS011;38941;53.254;6.600;2023-05-10T12:00:58;9.05;;;4.55;;
51836;SDS011;38941;53.254;6.600;2023-05-10T12:03:00;7.40;;;4.20;;
51836;SDS011;38941;53.254;6.600;2023-05-10T12:05:02;8.48;;;4.68;;
51836;SDS011;38941;53.254;6.600;2023-05-10T12:07:04;11.80;;;6.53;;
51836;SDS011;38941;53.254;6.600;2023-05-10T12:09:05;11.45;;;5.78;;
51836;SDS011;38941;53.254;6.600;2023-05-10T12:11:09;9.10;;;5.72;;
51836;SDS011;38941;53.254;6.600;2023-05-10T12:13:14;9.68;;;5.00;;
51836;SDS011;38941;53.254;6.600;2023-05-10T12:15:22;11.10;;;5.13;;
51836;SDS011;38941;53.254;6.600;2023-05-10T12:17:27;9.65;;;4.90;;
51836;SDS011;38941;53.254;6.600;2023-05-10T12:19:36;8.13;;;5.15;;
51836;SDS011;38941;53.254;6.600;2023-05-10T12:21:38;9.68;;;5.45;;
51836;SDS011;38941;53.254;6.600;2023-05-10T12:23:39;9.48;;;5.50;;
51836;SDS011;38941;53.254;6.600;2023-05-10T12:25:41;11.70;;;5.72;;
51836;SDS011;38941;53.254;6.600;2023-05-10T12:27:52;10.57;;;5.75;;
51836;SDS011;38941;53.254;6.600;2023-05-10T12:29:59;9.57;;;5.25;;
51836;SDS011;38941;53.254;6.600;2023-05-10T12:32:02;9.13;;;5.13;;
51836;SDS011;38941;53.254;6.600;2023-05-10T12:34:03;10.38;;;5.85;;
51836;SDS011;38941;53.254;6.600;2023-05-10T12:36:05;8.80;;;5.28;;
51836;SDS011;38941;53.254;6.600;2023-05-10T12:38:22;9.18;;;5.72;;
51836;SDS011;38941;53.254;6.600;2023-05-10T12:40:33;9.25;;;4.97;;
51836;SDS011;38941;53.254;6.600;2023-05-10T12:42:34;8.65;;;5.45;;
51836;SDS011;38941;53.254;6.600;2023-05-10T12:44:36;8.50;;;4.75;;
51836;SDS011;38941;53.254;6.600;2023-05-10T12:46:36;9.20;;;5.10;;
51836;SDS011;38941;53.254;6.600;2023-05-10T12:48:37;8.55;;;5.30;;
51836;SDS011;38941;53.254;6.600;2023-05-10T12:50:40;9.35;;;4.82;;
51836;SDS011;38941;53.254;6.600;2023-05-10T12:52:41;9.52;;;5.82;;
51836;SDS011;38941;53.254;6.600;2023-05-10T12:54:43;8.38;;;5.03;;